Time;durP1;ratioP1;P1;durP2;ratioP2;P2;SDS_P1;SDS_P2;PMS_P1;PMS_P2;Temp;Humidity;BMP_temperature;BMP_pressure;BME280_temperature;BME280_humidity;BME280_pressure;Samples;Min_cycle;Max_cycle;Signal;HPM_P1;HPM_P2
2023/01/24 00:00:54;;;;;;;62.78;34.30;;;;;;;11.02;64.42;98880.50;5064277;28;20106;-65
2023/01/24 00:03:43;;;;;;;61.05;33.33;;;;;;;11.03;64.17;98878.66;5061730;28;20050;-63
2023/01/24 00:06:25;;;;;;;67.72;34.95;;;;;;;10.96;64.48;98875.16;5063229;28;20157;-65
2023/01/24 00:09:14;;;;;;;75.05;37.00;;;;;;;10.96;63.78;98880.44;5066082;28;20063;-65
2023/01/24 00:12:03;;;;;;;68.15;38.67;;;;;;;10.98;64.70;98873.94;5065396;28;20152;-64
2023/01/24 00:14:45;;;;;;;72.97;41.58;;;;;;;11.00;63.40;98877.22;5042944;28;20060;-64
2023/01/24 00:17:34;;;;;;;68.80;38.50;;;;;;;10.95;63.58;98879.63;5060822;28;20371;-64
2023/01/24 00:20:17;;;;;;;77.03;40.53;;;;;;;10.93;64.06;98884.28;5080892;28;20043;-64
2023/01/24 00:23:06;;;;;;;68.35;38.10;;;;;;;10.95;63.16;98890.22;5077010;28;20134;-64
2023/01/24 00:25:48;;;;;;;71.35;39.80;;;;;;;10.91;63.12;98896.09;5068267;28;20052;-64
2023/01/24 00:28:37;;;;;;;76.63;40.63;;;;;;;10.94;63.59;98895.69;5069721;28;20097;-64
2023/01/24 00:31:20;;;;;;;64.88;38.22;;;;;;;11.04;63.97;98893.56;5052198;28;20056;-64
2023/01/24 00:34:09;;;;;;;69.07;40.30;;;;;;;10.95;64.28;98900.00;5043569;28;20536;-64
2023/01/24 00:36:51;;;;;;;73.22;40.05;;;;;;;10.92;63.39;98906.50;5045599;28;20406;-64
2023/01/24 00:39:40;;;;;;;77.30;42.47;;;;;;;10.94;63.92;98896.53;5056463;28;20048;-64
2023/01/24 00:42:22;;;;;;;78.30;41.42;;;;;;;11.03;64.11;98907.81;5068778;28;20134;-64
2023/01/24 00:45:11;;;;;;;81.20;43.97;;;;;;;10.94;64.96;98904.47;5067135;28;20155;-64
2023/01/24 00:47:53;;;;;;;77.03;41.85;;;;;;;10.91;64.35;98909.34;5084250;28;20554;-65
2023/01/24 00:50:42;;;;;;;80.03;41.38;;;;;;;10.83;65.54;98920.88;5061658;28;20547;-63
2023/01/24 00:53:25;;;;;;;75.47;41.40;;;;;;;10.90;63.87;98924.41;5065883;28;20044;-64
2023/01/24 00:56:14;;;;;;;70.05;39.40;;;;;;;11.15;63.87;98943.41;5075285;28;20059;-64
2023/01/24 00:58:56;;;;;;;74.90;37.85;;;;;;;11.40;64.33;98942.00;5084377;28;20052;-62
2023/01/24 01:01:45;;;;;;;67.32;36.55;;;;;;;11.16;65.06;98935.25;5058133;28;20064;-62
2023/01/24 01:04:27;;;;;;;64.15;35.40;;;;;;;11.05;64.71;98942.91;5061970;28;20416;-63
2023/01/24 01:07:17;;;;;;;65.35;34.05;;;;;;;11.05;65.23;98940.25;5044452;28;20464;-62
2023/01/24 01:09:59;;;;;;;59.90;33.28;;;;;;;11.07;64.69;98949.66;5059241;28;20140;-63
2023/01/24 01:12:54;;;;;;;57.10;31.55;;;;;;;11.07;63.87;98954.13;5055162;28;20485;-62
2023/01/24 01:15:30;;;;;;;62.90;34.35;;;;;;;11.13;64.94;98950.72;5066101;28;20052;-63
2023/01/24 01:18:25;;;;;;;57.97;33.65;;;;;;;11.20;64.37;98952.41;5080039;28;20047;-64
2023/01/24 01:21:18;;;;;;;68.57;35.47;;;;;;;11.21;64.17;98945.28;5048476;28;20139;-64
2023/01/24 01:24:08;;;;;;;65.85;36.95;;;;;;;11.10;64.04;98948.47;5022954;28;20042;-64
2023/01/24 01:26:52;;;;;;;68.78;37.42;;;;;;;11.01;64.25;98957.56;5023638;28;20045;-62
2023/01/24 01:29:41;;;;;;;75.43;38.05;;;;;;;10.97;63.80;98956.28;5063865;28;20059;-63
2023/01/24 01:32:23;;;;;;;80.50;40.90;;;;;;;11.01;64.34;98968.16;5062880;28;20496;-63
2023/01/24 01:35:12;;;;;;;76.45;41.33;;;;;;;11.04;64.80;98954.50;5044416;28;20056;-63
2023/01/24 01:37:54;;;;;;;81.60;43.28;;;;;;;11.10;64.50;98956.41;5045195;28;20159;-65
2023/01/24 01:40:43;;;;;;;84.97;45.88;;;;;;;11.02;64.92;98957.34;5051205;28;20117;-63
2023/01/24 01:43:28;;;;;;;86.82;43.55;;;;;;;10.99;65.33;98960.38;5060119;28;20044;-64
2023/01/24 01:46:33;;;;;;;79.72;42.88;;;;;;;10.97;65.04;98954.47;5063945;28;20052;-63
2023/01/24 01:49:21;;;;;;;75.20;41.15;;;;;;;10.95;65.12;98963.59;5057461;28;20049;-62
2023/01/24 01:52:13;;;;;;;72.35;36.70;;;;;;;10.87;65.78;98972.50;5042106;28;20052;-63
2023/01/24 01:55:31;;;;;;;67.05;36.63;;;;;;;10.83;65.73;98965.94;5039534;28;20060;-63
2023/01/24 01:58:22;;;;;;;60.85;33.30;;;;;;;10.95;65.28;98976.84;5044032;28;20048;-64
2023/01/24 02:01:05;;;;;;;67.00;33.40;;;;;;;10.93;65.13;98977.03;5062816;28;20538;-63
2023/01/24 02:04:05;;;;;;;57.40;31.67;;;;;;;10.89;65.51;98975.75;5028605;28;20621;-66
2023/01/24 02:07:03;;;;;;;54.90;28.48;;;;;;;10.87;65.41;98979.63;5024842;28;20130;-64
2023/01/24 02:09:42;;;;;;;50.08;28.33;;;;;;;10.89;65.05;98993.50;5054120;28;20048;-62
2023/01/24 02:12:45;;;;;;;55.38;31.35;;;;;;;11.18;65.37;98985.44;5059164;28;20068;-62
2023/01/24 02:18:41;;;;;;;62.30;31.95;;;;;;;11.16;65.11;98980.31;5059846;28;20060;-61
2023/01/24 02:21:31;;;;;;;64.55;30.38;;;;;;;11.07;65.64;98983.28;5067229;28;20047;-62
2023/01/24 02:24:34;;;;;;;66.03;31.55;;;;;;;11.06;66.05;98981.66;5046334;28;20584;-64
2023/01/24 02:27:16;;;;;;;59.05;31.15;;;;;;;11.08;64.93;98988.41;5079596;28;20113;-62
2023/01/24 02:30:06;;;;;;;59.55;30.42;;;;;;;11.20;64.31;98986.88;5075630;28;20067;-62
2023/01/24 02:32:48;;;;;;;61.25;31.13;;;;;;;11.29;63.83;98984.94;5075857;28;20075;-61
2023/01/24 02:35:38;;;;;;;61.30;32.38;;;;;;;11.30;65.36;98989.22;5076544;28;20051;-62
2023/01/24 02:38:24;;;;;;;56.80;32.80;;;;;;;11.21;64.20;98993.00;5075361;28;20044;-62
2023/01/24 02:41:15;;;;;;;61.37;33.50;;;;;;;11.21;64.25;99007.09;5059846;28;20044;-63
2023/01/24 02:44:01;;;;;;;55.00;32.33;;;;;;;11.49;64.47;99006.34;5083881;28;20608;-62
2023/01/24 02:46:51;;;;;;;58.95;31.52;;;;;;;11.41;64.21;98996.69;5062435;28;20067;-62
2023/01/24 02:49:33;;;;;;;59.97;31.23;;;;;;;11.30;64.91;98999.84;5054980;28;20098;-64
2023/01/24 02:55:24;;;;;;;66.55;32.30;;;;;;;11.34;65.27;99014.34;5054531;28;20048;-64
2023/01/24 02:58:13;;;;;;;68.43;34.20;;;;;;;11.17;65.59;99028.88;5057768;28;20047;-63
2023/01/24 03:00:55;;;;;;;70.85;34.22;;;;;;;11.14;65.14;99021.28;5082143;28;20051;-62
2023/01/24 03:03:45;;;;;;;64.25;33.17;;;;;;;11.21;65.96;99027.47;5058484;28;20040;-63
2023/01/24 03:06:35;;;;;;;70.28;35.83;;;;;;;11.35;65.19;99034.56;5049290;28;20143;-63
2023/01/24 03:09:33;;;;;;;83.00;37.88;;;;;;;11.35;65.27;99031.09;5046041;28;20433;-63
2023/01/24 03:37:02;;;;;;;77.80;43.55;;;;;;;12.80;61.10;99051.53;5047352;28;20063;-64
2023/01/24 03:39:58;;;;;;;97.05;43.80;;;;;;;12.91;60.99;99064.28;5030229;28;20041;-62
2023/01/24 03:42:49;;;;;;;86.07;43.35;;;;;;;13.40;60.85;99062.22;5038303;28;20081;-63
2023/01/24 03:45:44;;;;;;;89.00;43.47;;;;;;;13.48;60.25;99070.00;5048259;28;20118;-64
2023/01/24 03:48:38;;;;;;;84.90;43.30;;;;;;;13.54;59.89;99075.53;5055223;28;20056;-63
2023/01/24 03:54:37;;;;;;;88.55;44.47;;;;;;;14.15;57.92;99086.84;5059151;28;20102;-62
2023/01/24 03:57:26;;;;;;;88.53;44.97;;;;;;;14.13;58.64;99092.38;5058466;28;20056;-63
2023/01/24 04:00:13;;;;;;;81.78;46.08;;;;;;;14.13;59.13;99103.00;5040118;28;20041;-64
2023/01/24 04:03:06;;;;;;;88.15;45.72;;;;;;;14.56;57.25;99092.75;5042431;28;20051;-61
2023/01/24 04:05:49;;;;;;;93.22;45.53;;;;;;;15.10;55.51;99097.72;5037109;28;20052;-63
2023/01/24 04:08:39;;;;;;;81.35;43.78;;;;;;;15.35;56.63;99089.81;5025415;28;20126;-63
2023/01/24 04:11:22;;;;;;;87.93;47.72;;;;;;;15.63;56.00;99100.94;5051876;28;20080;-62
2023/01/24 04:14:18;;;;;;;80.38;46.22;;;;;;;15.95;53.94;99093.75;5038929;28;20039;-63
2023/01/24 04:17:10;;;;;;;92.90;48.90;;;;;;;16.01;53.02;99092.91;5056077;28;20048;-63
2023/01/24 04:20:00;;;;;;;96.38;48.05;;;;;;;16.34;52.64;99094.44;5041633;28;20689;-63
2023/01/24 04:22:50;;;;;;;99.47;49.72;;;;;;;15.84;53.17;99104.31;5047098;28;20056;-63
2023/01/24 04:25:40;;;;;;;85.28;48.13;;;;;;;16.04;53.17;99103.13;5046440;28;20057;-63
2023/01/24 04:28:31;;;;;;;89.20;49.50;;;;;;;15.65;53.17;99117.59;5038717;28;20054;-63
2023/01/24 04:31:14;;;;;;;93.57;50.92;;;;;;;16.26;53.53;99113.44;5045827;28;20501;-61
2023/01/24 04:34:06;;;;;;;99.18;50.25;;;;;;;16.05;52.35;99117.31;5044941;28;20071;-61
2023/01/24 04:36:48;;;;;;;90.45;50.42;;;;;;;15.72;54.00;99123.69;5034265;28;20057;-66
2023/01/24 04:39:40;;;;;;;99.28;52.22;;;;;;;15.59;55.17;99125.63;5053881;28;20494;-61
2023/01/24 04:42:30;;;;;;;98.15;50.60;;;;;;;15.25;55.77;99124.94;5042928;28;20114;-62
2023/01/24 04:45:12;;;;;;;91.93;50.53;;;;;;;15.46;55.76;99117.66;5046989;28;20049;-63
2023/01/24 04:48:03;;;;;;;96.75;50.95;;;;;;;15.32;55.31;99127.56;5030091;28;20056;-62
2023/01/24 04:50:57;;;;;;;93.32;51.83;;;;;;;15.90;56.64;99136.31;5063995;28;20095;-64
2023/01/24 04:53:46;;;;;;;;;;;;;;;15.70;54.21;99133.78;5065841;28;20534;-64
2023/01/24 04:56:32;;;;;;;101.15;50.65;;;;;;;15.64;54.81;99134.63;5070585;28;19935;-62
2023/01/24 04:59:22;;;;;;;104.43;54.97;;;;;;;16.02;55.30;99134.56;5024500;28;20110;-60
2023/01/24 05:02:13;;;;;;;102.18;54.67;;;;;;;15.47;55.96;99130.81;5040149;28;20568;-62
2023/01/24 05:04:55;;;;;;;99.63;55.30;;;;;;;15.55;56.46;99124.41;5043681;28;20060;-63
2023/01/24 05:07:44;;;;;;;100.38;52.65;;;;;;;15.86;57.01;99132.44;5030484;28;20165;-63
2023/01/24 05:10:27;;;;;;;105.00;54.70;;;;;;;15.41;55.48;99138.81;5038088;28;20157;-63
2023/01/24 05:13:16;;;;;;;98.10;54.78;;;;;;;15.08;56.55;99133.66;5042479;28;20048;-62
2023/01/24 05:15:58;;;;;;;113.78;57.80;;;;;;;15.14;57.87;99133.59;5033816;28;20044;-63
2023/01/24 05:18:47;;;;;;;110.68;59.95;;;;;;;15.91;57.28;99140.63;5027026;28;20089;-61
2023/01/24 05:21:36;;;;;;;97.82;57.45;;;;;;;16.60;53.73;99143.16;5051054;28;20052;-62
2023/01/24 05:24:20;;;;;;;105.55;57.55;;;;;;;16.89;52.11;99141.66;5033944;28;20048;-62
2023/01/24 05:27:09;;;;;;;107.88;56.40;;;;;;;16.79;51.78;99132.50;5021636;28;20535;-62
2023/01/24 05:29:59;;;;;;;104.65;58.20;;;;;;;17.18;51.70;99123.19;5015198;28;20344;-62
2023/01/24 05:32:49;;;;;;;100.80;55.92;;;;;;;17.15;52.02;99115.63;5032358;28;20052;-62
2023/01/24 05:35:31;;;;;;;98.95;53.67;;;;;;;17.15;52.81;99119.13;5024365;28;20061;-63
2023/01/24 05:38:20;;;;;;;81.53;48.47;;;;;;;17.58;51.17;99120.84;5024504;28;20073;-62
2023/01/24 05:41:05;;;;;;;85.15;49.47;;;;;;;17.72;50.02;99109.75;5023335;28;20052;-63
2023/01/24 05:43:57;;;;;;;92.28;49.75;;;;;;;17.60;51.01;99110.75;5035637;28;20091;-62
2023/01/24 05:46:45;;;;;;;98.05;51.50;;;;;;;17.67;51.52;99101.56;5039422;28;20052;-62
2023/01/24 05:49:40;;;;;;;94.88;50.33;;;;;;;17.94;50.93;99089.41;5025984;28;20491;-62
2023/01/24 05:52:22;;;;;;;89.88;49.08;;;;;;;17.90;50.94;99082.88;5026109;28;20067;-63
2023/01/24 05:55:12;;;;;;;87.10;46.85;;;;;;;18.14;51.32;99082.91;5029482;28;20049;-63
2023/01/24 05:58:00;;;;;;;82.13;47.78;;;;;;;18.19;50.52;99088.41;5028353;28;20061;-63
2023/01/24 06:01:19;;;;;;;82.82;45.83;;;;;;;18.02;49.48;99082.06;5032218;28;20052;-63
2023/01/24 06:04:09;;;;;;;75.93;45.72;;;;;;;18.55;49.95;99084.69;5026788;28;20060;-64
2023/01/24 06:06:58;;;;;;;79.60;46.22;;;;;;;18.41;48.59;99081.38;5010350;28;20045;-65
2023/01/24 06:09:40;;;;;;;77.40;43.88;;;;;;;18.52;49.92;99085.13;5036422;28;20187;-64
2023/01/24 06:12:29;;;;;;;79.35;41.33;;;;;;;18.65;48.26;99080.38;5052669;28;20052;-63
2023/01/24 06:15:11;;;;;;;69.05;41.03;;;;;;;18.49;48.94;99078.38;5038755;28;20106;-63
2023/01/24 06:18:00;;;;;;;77.63;44.45;;;;;;;18.27;48.82;99080.00;5045218;28;20138;-63
2023/01/24 06:20:42;;;;;;;75.25;43.95;;;;;;;18.28;49.90;99076.25;5064266;28;20044;-63
2023/01/24 06:23:35;;;;;;;73.07;43.00;;;;;;;18.31;49.09;99078.50;5061907;28;20076;-62
2023/01/24 06:26:17;;;;;;;78.10;43.97;;;;;;;18.06;49.76;99081.38;5056417;28;20067;-63
2023/01/24 06:29:06;;;;;;;78.90;45.38;;;;;;;17.58;49.03;99091.38;5081012;28;20048;-63
2023/01/24 06:32:10;;;;;;;83.18;44.03;;;;;;;17.39;49.96;99080.69;5086671;28;20047;-64
2023/01/24 06:35:21;;;;;;;77.35;45.58;;;;;;;17.72;50.50;99072.22;5097322;28;20059;-63
2023/01/24 06:38:29;;;;;;;87.50;47.42;;;;;;;18.28;49.62;99057.50;5081033;28;20109;-64
2023/01/24 06:41:16;;;;;;;78.82;46.03;;;;;;;18.32;48.72;99046.06;5094532;28;20040;-65
2023/01/24 06:44:07;;;;;;;90.55;47.58;;;;;;;17.97;48.82;99044.44;5100048;28;20048;-64
2023/01/24 06:46:49;;;;;;;88.03;49.63;;;;;;;17.39;50.70;99042.44;5086534;28;20069;-64
2023/01/24 06:49:39;;;;;;;94.43;50.95;;;;;;;17.76;52.00;99038.56;5076641;28;20058;-67
2023/01/24 06:52:28;;;;;;;107.63;59.83;;;;;;;17.52;51.66;99036.88;5088121;28;20579;-64
2023/01/24 06:55:10;;;;;;;121.53;63.03;;;;;;;17.57;52.33;99036.97;5086278;28;20067;-64
2023/01/24 06:57:58;;;;;;;120.57;64.90;;;;;;;17.81;52.47;99037.88;5093761;28;20047;-64
2023/01/24 07:00:46;;;;;;;121.13;64.22;;;;;;;17.89;51.24;99037.53;5106481;28;20138;-65
2023/01/24 07:03:28;;;;;;;117.60;64.00;;;;;;;18.08;51.07;99035.59;5104168;28;20051;-66
2023/01/24 07:06:17;;;;;;;113.88;61.28;;;;;;;18.32;50.73;99031.88;5106120;28;20051;-64
2023/01/24 07:08:59;;;;;;;113.13;64.25;;;;;;;17.95;50.27;99025.91;5088302;28;20052;-64
2023/01/24 07:11:52;;;;;;;116.68;64.25;;;;;;;17.80;52.07;99018.31;5088423;28;20543;-64
2023/01/24 07:14:34;;;;;;;113.07;62.15;;;;;;;17.47;52.72;99020.69;5080804;28;20040;-64
2023/01/24 07:17:23;;;;;;;103.30;58.88;;;;;;;17.79;52.26;99022.03;5080828;28;20067;-63
2023/01/24 07:20:06;;;;;;;101.22;55.92;;;;;;;17.62;52.93;99020.25;5070410;28;20132;-62
2023/01/24 07:22:56;;;;;;;84.43;50.92;;;;;;;18.03;52.51;99022.06;5080534;28;20147;-63
2023/01/24 07:25:38;;;;;;;74.63;45.13;;;;;;;18.14;52.77;99007.88;5077179;28;20044;-64
2023/01/24 07:28:27;;;;;;;84.45;44.42;;;;;;;18.08;52.78;99000.75;5087099;28;20052;-63
2023/01/24 07:31:12;;;;;;;68.22;41.20;;;;;;;17.76;53.13;98998.38;5086871;28;20040;-63
2023/01/24 07:34:01;;;;;;;61.78;39.90;;;;;;;17.78;53.46;98998.16;5084072;28;20051;-64
2023/01/24 07:36:56;;;;;;;67.43;40.92;;;;;;;17.72;53.27;98991.88;5103962;28;20789;-64
2023/01/24 07:39:32;;;;;;;68.70;40.22;;;;;;;17.98;53.33;98993.28;5083457;28;20071;-66
2023/01/24 07:42:26;;;;;;;68.03;41.63;;;;;;;17.32;54.53;98999.66;5098711;28;20047;-64
2023/01/24 07:45:02;;;;;;;78.95;43.63;;;;;;;17.76;53.72;98989.53;5098838;28;20048;-62
2023/01/24 07:48:02;;;;;;;66.38;43.45;;;;;;;17.95;53.33;98981.16;5095935;28;20490;-63
2023/01/24 07:50:38;;;;;;;83.47;46.47;;;;;;;17.61;54.30;98973.94;5092035;28;20063;-63
2023/01/24 07:53:35;;;;;;;81.57;47.95;;;;;;;17.77;52.87;98973.25;5093082;28;20285;-63
2023/01/24 07:56:10;;;;;;;86.75;47.17;;;;;;;17.82;54.45;98959.97;5104009;28;20490;-63
2023/01/24 07:59:06;;;;;;;85.35;46.70;;;;;;;18.06;53.56;98955.41;5102176;28;20120;-63
2023/01/24 08:01:48;;;;;;;74.80;45.17;;;;;;;17.86;54.19;98952.28;5098500;28;20139;-63
2023/01/24 08:04:39;;;;;;;74.97;44.28;;;;;;;18.13;53.34;98950.75;5076902;28;20127;-63
2023/01/24 08:07:28;;;;;;;83.63;48.67;;;;;;;17.87;53.93;98945.88;5107011;28;20069;-64
2023/01/24 08:10:17;;;;;;;84.53;49.03;;;;;;;18.07;53.80;98943.63;5106657;28;20043;-63
2023/01/24 08:12:59;;;;;;;69.93;43.78;;;;;;;18.10;54.22;98939.69;5105500;28;20554;-64
2023/01/24 08:15:48;;;;;;;69.30;42.28;;;;;;;18.23;55.04;98942.13;5085328;28;20048;-65
2023/01/24 08:18:37;;;;;;;79.57;44.50;;;;;;;18.28;55.36;98945.69;5083429;28;20063;-64
2023/01/24 08:21:33;;;;;;;73.47;45.22;;;;;;;18.04;54.89;98938.75;5082985;28;20490;-64
2023/01/24 08:24:09;;;;;;;70.50;42.67;;;;;;;18.06;55.60;98933.13;5075572;28;20036;-63
2023/01/24 08:27:00;;;;;;;71.82;41.63;;;;;;;17.95;56.21;98918.72;5085704;28;20068;-65
2023/01/24 08:29:42;;;;;;;65.35;41.80;;;;;;;17.93;56.22;98920.81;5058163;28;20445;-64
2023/01/24 08:32:31;;;;;;;71.82;41.03;;;;;;;18.00;56.47;98923.38;5061729;28;20124;-64
2023/01/24 08:35:20;;;;;;;66.00;40.47;;;;;;;17.68;56.79;98909.50;5079144;28;20054;-64
2023/01/24 08:38:02;;;;;;;73.03;42.33;;;;;;;17.48;56.95;98907.94;5083761;28;20032;-63
2023/01/24 08:40:51;;;;;;;74.57;42.22;;;;;;;17.74;56.92;98904.06;5086811;28;20144;-64
2023/01/24 08:43:33;;;;;;;82.47;44.78;;;;;;;17.43;57.10;98907.84;5074969;28;20053;-63
2023/01/24 08:46:22;;;;;;;72.28;43.75;;;;;;;17.52;57.32;98905.66;5069082;28;20064;-63
2023/01/24 08:49:12;;;;;;;75.68;44.92;;;;;;;17.37;57.09;98913.31;5063393;28;20041;-63
2023/01/24 08:52:01;;;;;;;74.22;44.38;;;;;;;17.60;56.76;98912.53;5064110;28;20083;-64
2023/01/24 08:54:43;;;;;;;76.38;45.75;;;;;;;17.68;56.72;98902.31;5029435;28;20048;-63
2023/01/24 08:57:32;;;;;;;82.90;46.53;;;;;;;17.66;57.05;98901.69;5055398;28;20129;-64
2023/01/24 09:00:14;;;;;;;76.72;46.08;;;;;;;17.37;57.92;98894.56;5063476;28;20059;-63
2023/01/24 09:03:03;;;;;;;78.43;45.03;;;;;;;17.41;57.66;98895.72;5046223;28;20793;-64
2023/01/24 09:06:03;;;;;;;80.00;44.50;;;;;;;17.21;58.38;98889.91;5062558;28;20055;-63
2023/01/24 09:08:39;;;;;;;79.30;43.70;;;;;;;17.43;57.52;98890.97;5063328;28;20082;-63
2023/01/24 09:11:34;;;;;;;67.50;40.30;;;;;;;17.38;58.47;98889.00;5063571;28;20145;-63
2023/01/24 09:14:10;;;;;;;70.35;40.10;;;;;;;17.56;57.95;98877.34;5070139;28;20732;-63
2023/01/24 09:16:59;;;;;;;67.75;39.95;;;;;;;17.69;57.78;98862.94;5070473;28;20145;-63
2023/01/24 09:19:41;;;;;;;59.63;40.05;;;;;;;17.94;57.66;98861.63;5072741;28;20051;-64
2023/01/24 09:22:30;;;;;;;66.10;40.75;;;;;;;18.15;57.48;98864.72;5071505;28;20075;-64
2023/01/24 09:25:13;;;;;;;60.33;39.97;;;;;;;17.85;57.45;98860.34;5076682;28;20110;-63
2023/01/24 09:28:02;;;;;;;66.45;39.50;;;;;;;17.74;59.43;98849.66;5068711;28;20049;-64
2023/01/24 09:30:51;;;;;;;70.30;40.50;;;;;;;17.57;59.12;98844.16;5081269;28;20072;-63
2023/01/24 09:33:33;;;;;;;67.53;41.20;;;;;;;17.79;58.83;98839.84;5070088;28;20084;-63
2023/01/24 09:36:38;;;;;;;65.40;39.03;;;;;;;18.07;58.01;98832.91;5064645;28;20113;-64
2023/01/24 09:39:21;;;;;;;72.25;42.38;;;;;;;18.26;57.18;98837.06;5082581;28;20062;-62
2023/01/24 09:42:31;;;;;;;66.38;41.90;;;;;;;17.80;58.70;98832.63;5084835;28;20058;-63
2023/01/24 09:45:23;;;;;;;78.45;42.90;;;;;;;18.03;59.77;98826.41;5076166;28;20052;-61
2023/01/24 09:48:20;;;;;;;65.03;42.40;;;;;;;17.99;60.71;98833.28;5084129;28;20693;-62
2023/01/24 09:51:17;;;;;;;66.18;42.05;;;;;;;17.87;61.12;98830.66;5074297;28;20056;-64
2023/01/24 09:54:09;;;;;;;71.85;41.45;;;;;;;17.94;60.59;98824.09;5085258;28;20048;-64
2023/01/24 09:56:52;;;;;;;66.93;42.20;;;;;;;17.84;60.85;98823.88;5097233;28;20744;-63
2023/01/24 09:59:52;;;;;;;73.45;44.38;;;;;;;17.66;61.79;98816.00;5094860;28;20141;-64
2023/01/24 10:02:39;;;;;;;73.57;44.33;;;;;;;17.68;61.34;98810.41;5104554;28;20130;-65
2023/01/24 10:05:30;;;;;;;69.88;44.13;;;;;;;17.77;61.52;98819.72;5080868;28;20052;-65
2023/01/24 10:08:19;;;;;;;73.55;45.65;;;;;;;17.75;61.05;98819.94;5104969;28;20882;-64
2023/01/24 10:11:27;;;;;;;74.30;45.53;;;;;;;17.64;61.41;98819.97;5097474;28;20051;-64
2023/01/24 10:14:59;;;;;;;75.50;45.13;;;;;;;17.72;61.13;98812.38;5104316;28;20047;-64
2023/01/24 10:18:17;;;;;;;70.07;43.03;;;;;;;17.61;60.75;98810.53;5020166;28;20072;-64
2023/01/24 10:21:08;;;;;;;79.97;45.92;;;;;;;17.53;61.35;98802.81;5093676;28;20044;-63
2023/01/24 10:24:19;;;;;;;74.07;46.65;;;;;;;17.55;60.70;98802.59;5096263;28;20478;-65
2023/01/24 10:27:06;;;;;;;85.00;46.65;;;;;;;17.55;60.44;98799.91;5086886;28;20100;-64
2023/01/24 10:30:04;;;;;;;77.50;46.22;;;;;;;17.47;60.29;98804.59;5089919;28;20055;-63
2023/01/24 10:33:06;;;;;;;73.32;43.35;;;;;;;17.46;59.34;98802.13;5085662;28;20052;-63
2023/01/24 10:36:00;;;;;;;68.63;44.10;;;;;;;17.31;58.21;98796.44;5070812;28;20049;-64
2023/01/24 10:38:51;;;;;;;76.55;40.22;;;;;;;17.21;57.94;98789.00;5069954;28;20477;-61
2023/01/24 10:41:37;;;;;;;69.63;40.22;;;;;;;17.22;56.82;98787.94;5068599;28;20048;-65
2023/01/24 10:44:29;;;;;;;73.40;41.30;;;;;;;17.42;57.22;98779.56;5066068;28;20107;-64
2023/01/24 10:47:47;;;;;;;74.05;42.63;;;;;;;17.30;56.96;98786.78;5090925;28;20158;-63
2023/01/24 10:50:42;;;;;;;68.95;40.53;;;;;;;17.47;58.38;98798.41;5075554;28;20379;-64
2023/01/24 10:53:33;;;;;;;68.10;39.85;;;;;;;17.55;55.95;98792.69;5072246;28;20134;-63
2023/01/24 10:56:28;;;;;;;60.55;37.55;;;;;;;17.38;55.35;98789.94;5071885;28;20048;-63
2023/01/24 10:59:12;;;;;;;63.55;38.80;;;;;;;17.28;56.14;98794.22;5066346;28;20044;-63
2023/01/24 11:02:01;;;;;;;66.40;38.97;;;;;;;17.10;55.93;98783.63;5084223;28;20052;-62
2023/01/24 11:04:43;;;;;;;66.28;39.47;;;;;;;17.26;56.19;98790.97;5085494;28;20059;-65
2023/01/24 11:07:41;;;;;;;62.85;38.35;;;;;;;17.48;56.28;98784.00;5065248;28;20064;-64
2023/01/24 11:10:30;;;;;;;66.80;38.95;;;;;;;17.44;55.41;98788.16;5066353;28;20060;-65
2023/01/24 11:13:38;;;;;;;65.30;38.72;;;;;;;17.46;55.43;98783.38;5075460;28;20078;-67
2023/01/24 11:16:30;;;;;;;67.50;39.22;;;;;;;17.47;55.38;98783.16;5076253;28;20056;-66
2023/01/24 11:19:38;;;;;;;71.97;41.08;;;;;;;17.42;56.36;98784.91;5074874;28;20036;-65
2023/01/24 11:22:35;;;;;;;66.72;39.30;;;;;;;17.45;55.92;98792.47;5072424;28;20363;-66
2023/01/24 11:25:24;;;;;;;81.65;41.92;;;;;;;17.47;55.45;98787.72;5082097;28;20121;-65
2023/01/24 11:28:22;;;;;;;;;;;;;;;17.59;55.46;98780.50;5075663;28;20058;-65
2023/01/24 11:31:32;;;;;;;78.50;41.20;;;;;;;17.60;55.67;98790.16;5076931;28;19962;-64
2023/01/24 11:34:39;;;;;;;65.20;39.70;;;;;;;17.58;55.17;98773.50;5087455;28;20064;-65
2023/01/24 11:37:40;;;;;;;75.95;40.47;;;;;;;17.53;56.29;98778.72;5083878;28;20048;-66
2023/01/24 11:40:40;;;;;;;72.15;42.10;;;;;;;17.41;58.14;98776.06;5070644;28;20040;-66
2023/01/24 11:43:56;;;;;;;70.57;39.20;;;;;;;17.44;56.69;98767.56;5080385;28;20071;-65
2023/01/24 11:46:56;;;;;;;73.47;39.92;;;;;;;17.37;57.21;98776.75;5080603;28;20056;-65
2023/01/24 11:50:16;;;;;;;73.00;39.55;;;;;;;17.25;58.85;98781.31;5089283;28;20063;-64
2023/01/24 11:53:10;;;;;;;70.65;38.47;;;;;;;17.24;57.07;98785.84;5087961;28;20044;-63
2023/01/24 11:56:12;;;;;;;71.22;39.05;;;;;;;17.23;57.58;98792.25;5067736;28;20051;-63
2023/01/24 11:58:57;;;;;;;69.72;40.25;;;;;;;17.18;55.97;98783.28;5081775;28;20040;-64
2023/01/24 12:02:09;;;;;;;66.70;39.28;;;;;;;17.24;56.31;98779.69;5066631;28;20055;-63
2023/01/24 12:05:10;;;;;;;72.50;40.78;;;;;;;17.26;57.55;98790.97;5072718;28;20109;-63
2023/01/24 12:08:26;;;;;;;82.22;40.60;;;;;;;17.01;58.10;98794.69;5073498;28;20055;-63
2023/01/24 12:11:18;;;;;;;63.67;39.72;;;;;;;16.92;58.58;98796.06;5072359;28;20055;-63
2023/01/24 13:29:43;;;;;;;86.68;48.63;;;;;;;14.22;70.18;98886.00;4775661;27;9302385;-57
2023/01/24 13:32:41;;;;;;;92.65;51.75;;;;;;;14.12;70.62;98888.28;5080408;28;20052;-65
2023/01/24 13:35:21;;;;;;;90.40;50.88;;;;;;;14.02;70.90;98885.28;5100951;28;20054;-70
2023/01/24 13:38:33;;;;;;;99.80;51.95;;;;;;;14.02;70.47;98887.13;5078175;28;20052;-68
2023/01/24 13:41:25;;;;;;;85.45;48.97;;;;;;;14.07;70.78;98901.44;5079971;28;20048;-65
2023/01/24 13:44:39;;;;;;;90.60;52.20;;;;;;;14.08;70.85;98907.56;5097723;28;20086;-68
2023/01/24 13:47:17;;;;;;;95.25;51.92;;;;;;;14.03;70.88;98908.19;5100916;28;20047;-63
2023/01/24 13:50:14;;;;;;;103.10;52.15;;;;;;;14.21;71.01;98912.84;5093333;28;20131;-61
2023/01/24 13:53:02;;;;;;;94.90;53.63;;;;;;;14.17;70.95;98912.47;5082427;28;20052;-63
2023/01/24 13:56:02;;;;;;;97.63;54.17;;;;;;;14.28;70.98;98916.31;5065170;28;20109;-63
2023/01/24 13:58:56;;;;;;;107.25;58.35;;;;;;;14.30;70.59;98917.72;5092306;28;20043;-63
2023/01/24 14:01:46;;;;;;;109.03;57.47;;;;;;;14.28;70.88;98919.00;5086546;28;20063;-63
2023/01/24 14:04:48;;;;;;;106.55;56.97;;;;;;;14.28;70.82;98922.47;5047912;28;20484;-71
2023/01/24 14:07:40;;;;;;;102.53;58.78;;;;;;;14.12;71.75;98927.41;5067883;28;20052;-65
2023/01/24 14:10:45;;;;;;;107.35;60.80;;;;;;;14.09;71.54;98928.66;5069633;28;20041;-66
2023/01/24 14:13:54;;;;;;;112.18;59.50;;;;;;;14.17;71.75;98939.09;5092979;28;20078;-66
2023/01/24 15:29:01;;;;;;;126.53;70.60;;;;;;;13.37;76.16;99011.22;4703311;27;9431399;-60
2023/01/24 15:31:57;;;;;;;133.45;71.53;;;;;;;13.36;76.25;98999.78;5029984;28;20045;-59
2023/01/24 15:34:33;;;;;;;137.35;72.70;;;;;;;13.37;76.47;99012.06;5026722;28;20049;-61
2023/01/24 15:37:29;;;;;;;127.15;70.88;;;;;;;13.37;76.88;99016.56;5026072;28;20057;-59
2023/01/24 15:40:05;;;;;;;127.70;73.40;;;;;;;13.29;76.72;99014.91;5020482;28;20046;-58
2023/01/24 15:49:25;;;;;;;140.85;76.72;;;;;;;13.40;77.09;98992.22;5030093;28;20520;-58
2023/01/24 15:52:20;;;;;;;133.68;75.78;;;;;;;13.30;77.09;98989.13;5029155;28;20059;-60
2023/01/24 15:55:15;;;;;;;146.00;77.63;;;;;;;13.42;76.91;98988.31;5040577;28;20146;-60
2023/01/24 15:57:51;;;;;;;132.52;74.85;;;;;;;13.21;77.46;98996.47;5019185;28;20092;-63
2023/01/24 16:01:01;;;;;;;134.50;77.22;;;;;;;13.20;77.64;98994.03;5026713;28;20050;-66
2023/01/24 16:03:37;;;;;;;140.63;77.30;;;;;;;13.25;77.65;98996.91;5035931;28;20740;-66
2023/01/24 16:06:26;;;;;;;148.47;81.03;;;;;;;13.33;77.71;98994.84;5031801;28;20144;-63
2023/01/24 16:09:11;;;;;;;153.57;82.18;;;;;;;13.29;77.69;98984.81;5031168;28;20298;-62
2023/01/24 16:12:08;;;;;;;158.15;83.60;;;;;;;13.36;78.11;98983.84;5016129;28;20435;-62